createdAt,value
2019-03-27T00:00:48.073Z,34.40
2019-03-27T00:03:16.442Z,31.50
2019-03-27T00:05:44.823Z,33.05
2019-03-27T00:08:13.108Z,34.78
2019-03-27T00:10:41.498Z,29.72
2019-03-27T00:13:09.857Z,34.65
2019-03-27T00:15:38.420Z,29.55
2019-03-27T00:18:06.717Z,35.98
2019-03-27T00:20:35.098Z,34.13
2019-03-27T00:23:03.382Z,33.98
2019-03-27T00:25:31.696Z,31.10
2019-03-27T00:27:59.992Z,39.73
2019-03-27T00:30:28.377Z,43.63
2019-03-27T00:32:56.669Z,37.48
2019-03-27T00:35:24.992Z,46.92
2019-03-27T00:37:53.352Z,33.78
2019-03-27T00:40:21.668Z,35.98
2019-03-27T00:42:49.971Z,37.50
2019-03-27T00:45:26.533Z,35.55
2019-03-27T00:47:48.363Z,32.90
2019-03-27T00:50:16.744Z,40.55
2019-03-27T00:52:45.304Z,33.75
2019-03-27T00:55:13.620Z,38.50
2019-03-27T00:57:41.976Z,34.08
2019-03-27T01:00:19.176Z,36.90
2019-03-27T01:02:47.536Z,32.95
2019-03-27T01:05:15.856Z,35.17
2019-03-27T01:07:44.212Z,36.58
2019-03-27T01:10:12.520Z,36.45
2019-03-27T01:12:40.810Z,35.08
2019-03-27T01:15:09.121Z,39.10
2019-03-27T01:17:37.476Z,36.17
2019-03-27T01:20:06.133Z,33.95
2019-03-27T01:22:34.492Z,40.17
2019-03-27T01:25:02.806Z,35.70
2019-03-27T01:27:31.096Z,37.75
2019-03-27T01:29:59.409Z,36.35
2019-03-27T01:32:27.769Z,33.18
2019-03-27T01:34:56.080Z,35.83
2019-03-27T01:37:24.370Z,38.60
2019-03-27T01:39:52.687Z,38.58
2019-03-27T01:42:20.982Z,37.20
2019-03-27T01:44:49.324Z,34.63
2019-03-27T01:47:17.672Z,36.48
2019-03-27T01:49:45.996Z,34.92
2019-03-27T01:52:14.366Z,36.30
2019-03-27T01:54:42.724Z,43.05
2019-03-27T01:57:11.057Z,36.08
2019-03-27T01:59:39.427Z,35.23
2019-03-27T02:02:07.824Z,34.40
2019-03-27T02:04:36.193Z,36.68
2019-03-27T02:07:04.598Z,35.78
2019-03-27T02:09:32.965Z,37.30
2019-03-27T02:12:01.378Z,42.93
2019-03-27T02:14:29.736Z,44.77
2019-03-27T02:16:58.128Z,37.33
2019-03-27T02:19:26.492Z,37.17
2019-03-27T02:21:55.377Z,35.20
2019-03-27T02:24:23.736Z,49.03
2019-03-27T02:26:52.048Z,39.13
2019-03-27T02:29:20.332Z,38.38
2019-03-27T02:31:48.650Z,36.35
2019-03-27T02:34:17.021Z,38.42
2019-03-27T02:36:45.406Z,39.78
2019-03-27T02:39:13.779Z,39.25
2019-03-27T02:41:42.090Z,46.53
2019-03-27T02:44:10.453Z,35.88
2019-03-27T02:46:38.771Z,41.13
2019-03-27T02:49:07.137Z,45.48
2019-03-27T02:51:35.526Z,39.15
2019-03-27T02:54:03.881Z,37.30
2019-03-27T02:56:32.196Z,43.73
2019-03-27T02:59:00.560Z,39.33
2019-03-27T03:01:28.939Z,39.48
2019-03-27T03:03:57.376Z,41.95
2019-03-27T03:06:25.724Z,42.25
2019-03-27T03:08:54.086Z,41.02
2019-03-27T03:11:22.405Z,39.10
2019-03-27T03:13:50.776Z,38.55
2019-03-27T03:16:19.167Z,40.20
2019-03-27T03:18:47.532Z,38.58
2019-03-27T03:21:15.843Z,44.63
2019-03-27T03:23:44.205Z,41.37
2019-03-27T03:26:12.604Z,41.63
2019-03-27T03:28:40.964Z,37.15
2019-03-27T03:31:09.342Z,33.90
2019-03-27T03:33:37.705Z,41.23
2019-03-27T03:36:06.077Z,39.55
2019-03-27T03:38:34.466Z,47.43
2019-03-27T03:41:02.833Z,40.10
2019-03-27T03:43:31.213Z,44.77
2019-03-27T03:45:59.578Z,39.83
2019-03-27T03:48:27.966Z,42.48
2019-03-27T03:50:59.468Z,44.18
2019-03-27T03:53:27.781Z,40.55
2019-03-27T03:55:56.067Z,42.62
2019-03-27T03:58:24.476Z,39.27
2019-03-27T04:00:52.825Z,36.77
2019-03-27T04:03:23.253Z,42.30
2019-03-27T04:05:51.614Z,38.73
2019-03-27T04:08:20.005Z,42.08
2019-03-27T04:10:48.365Z,46.40
2019-03-27T04:13:16.685Z,44.03
2019-03-27T04:15:45.107Z,45.60
2019-03-27T04:18:13.491Z,42.27
2019-03-27T04:20:41.784Z,42.70
2019-03-27T04:23:10.342Z,44.35
2019-03-27T04:26:07.338Z,45.92
2019-03-27T04:28:08.743Z,41.70
2019-03-27T04:30:37.105Z,48.70
2019-03-27T04:33:05.416Z,40.50
2019-03-27T04:35:33.701Z,49.45
2019-03-27T04:38:02.018Z,41.80
2019-03-27T04:40:30.393Z,45.25
2019-03-27T04:42:58.776Z,44.30
2019-03-27T04:45:27.079Z,45.63
2019-03-27T04:47:55.456Z,47.60
2019-03-27T04:50:23.747Z,46.15
2019-03-27T04:52:52.131Z,48.40
2019-03-27T04:55:20.498Z,47.75
2019-03-27T04:57:48.880Z,45.20
2019-03-27T05:00:17.172Z,47.98
2019-03-27T05:02:45.455Z,54.40
2019-03-27T05:05:13.768Z,43.35
2019-03-27T05:07:42.061Z,43.73
2019-03-27T05:10:10.380Z,50.95
2019-03-27T05:12:39.049Z,51.13
2019-03-27T05:15:07.793Z,44.35
2019-03-27T05:17:45.612Z,46.10
2019-03-27T05:20:07.460Z,49.75
2019-03-27T05:22:35.752Z,45.40
2019-03-27T05:25:04.683Z,40.20
2019-03-27T05:27:36.142Z,48.70
2019-03-27T05:30:03.522Z,49.88
2019-03-27T05:32:31.884Z,52.60
2019-03-27T05:35:00.399Z,44.58
2019-03-27T05:37:28.774Z,55.33
2019-03-27T05:39:57.157Z,47.95
2019-03-27T05:42:25.515Z,53.65
2019-03-27T05:44:53.832Z,56.58
2019-03-27T05:47:22.141Z,52.83
2019-03-27T05:49:50.449Z,55.35
2019-03-27T05:52:18.742Z,48.50
2019-03-27T05:54:47.138Z,44.25
2019-03-27T05:57:15.506Z,53.95
2019-03-27T05:59:43.902Z,48.90
2019-03-27T06:02:12.260Z,53.80
2019-03-27T06:04:40.568Z,51.77
2019-03-27T06:07:08.862Z,49.23
2019-03-27T06:09:37.253Z,50.80
2019-03-27T06:12:05.544Z,48.85
2019-03-27T06:14:33.848Z,43.63
2019-03-27T06:17:02.145Z,56.48
2019-03-27T06:19:31.038Z,49.18
2019-03-27T06:21:59.404Z,49.30
2019-03-27T06:24:27.779Z,47.35
2019-03-27T06:26:56.064Z,44.00
2019-03-27T06:29:24.377Z,45.17
2019-03-27T06:31:52.659Z,40.45
2019-03-27T06:34:20.971Z,41.58
2019-03-27T06:36:49.342Z,45.83
2019-03-27T06:39:17.721Z,44.03
2019-03-27T06:41:46.086Z,42.30
2019-03-27T06:44:14.473Z,41.28
2019-03-27T06:46:42.756Z,44.30
2019-03-27T06:49:11.080Z,44.63
2019-03-27T06:51:40.507Z,39.38
2019-03-27T06:54:09.040Z,45.05
2019-03-27T06:56:37.351Z,45.12
2019-03-27T06:59:05.720Z,58.20
2019-03-27T07:01:34.097Z,52.27
2019-03-27T07:04:10.321Z,46.25
2019-03-27T07:06:32.491Z,50.05
2019-03-27T07:09:00.853Z,42.93
2019-03-27T07:11:29.165Z,45.58
2019-03-27T07:13:57.529Z,44.05
2019-03-27T07:16:25.913Z,42.73
2019-03-27T07:18:54.280Z,40.95
2019-03-27T07:21:22.599Z,46.37
2019-03-27T07:23:50.965Z,44.18
2019-03-27T07:26:19.344Z,39.98
2019-03-27T07:28:47.626Z,44.30
2019-03-27T07:31:16.007Z,42.48
2019-03-27T07:33:44.370Z,45.12
2019-03-27T07:36:12.747Z,45.45
2019-03-27T07:38:41.037Z,43.42
2019-03-27T07:41:09.348Z,43.40
2019-03-27T07:43:37.641Z,38.90
2019-03-27T07:46:05.957Z,37.95
2019-03-27T07:48:34.242Z,43.78
2019-03-27T07:51:02.701Z,36.28
2019-03-27T07:53:30.985Z,36.80
2019-03-27T07:55:59.381Z,38.78
2019-03-27T07:58:27.755Z,37.13
2019-03-27T08:00:56.137Z,36.35
2019-03-27T08:03:24.430Z,39.58
2019-03-27T08:05:52.810Z,35.30
2019-03-27T08:08:21.168Z,35.30
2019-03-27T08:10:49.491Z,34.78
2019-03-27T08:13:18.109Z,31.60
2019-03-27T08:15:46.501Z,34.73
2019-03-27T08:18:14.852Z,36.03
2019-03-27T08:20:43.170Z,32.45
2019-03-27T08:23:11.536Z,34.08
2019-03-27T08:25:39.844Z,28.62
2019-03-27T08:28:08.216Z,28.30
2019-03-27T08:30:36.580Z,31.87
2019-03-27T08:33:04.891Z,24.92
2019-03-27T08:35:33.258Z,27.58
2019-03-27T08:38:01.889Z,26.68
2019-03-27T08:40:30.259Z,27.22
2019-03-27T08:42:58.644Z,26.80
2019-03-27T08:45:27.010Z,21.20
2019-03-27T08:47:55.400Z,19.40
2019-03-27T08:50:23.767Z,18.87
2019-03-27T08:52:52.115Z,19.50
2019-03-27T08:55:20.444Z,17.15
2019-03-27T08:57:48.756Z,17.85
2019-03-27T09:00:17.049Z,18.67
2019-03-27T09:02:45.360Z,13.70
2019-03-27T09:05:13.649Z,16.85
2019-03-27T09:07:41.969Z,14.00
2019-03-27T09:10:10.581Z,16.37
2019-03-27T09:12:38.965Z,14.23
2019-03-27T09:15:08.497Z,16.15
2019-03-27T09:17:36.806Z,11.60
2019-03-27T09:20:06.108Z,12.18
2019-03-27T09:22:34.488Z,14.47
2019-03-27T09:25:02.854Z,13.05
2019-03-27T09:27:31.224Z,11.88
2019-03-27T09:29:59.521Z,12.40
2019-03-27T09:32:27.845Z,11.57
2019-03-27T09:34:56.192Z,11.03
2019-03-27T09:37:24.532Z,12.78
2019-03-27T09:39:52.820Z,15.75
2019-03-27T09:42:21.205Z,10.35
2019-03-27T09:44:49.494Z,9.35
2019-03-27T09:47:17.808Z,9.38
2019-03-27T09:49:49.939Z,12.25
2019-03-27T09:52:16.554Z,14.45
2019-03-27T09:54:44.917Z,12.23
2019-03-27T09:57:13.237Z,15.18
2019-03-27T09:59:41.515Z,7.22
2019-03-27T10:02:09.911Z,6.80
2019-03-27T10:04:38.276Z,10.13
2019-03-27T10:07:07.436Z,12.40
2019-03-27T10:09:35.733Z,10.93
2019-03-27T10:12:04.128Z,11.53
2019-03-27T10:14:32.476Z,13.90
2019-03-27T10:17:00.798Z,13.98
2019-03-27T10:19:29.152Z,11.40
2019-03-27T10:21:57.460Z,15.60
2019-03-27T10:24:25.748Z,13.32
2019-03-27T10:26:54.065Z,13.95
2019-03-27T10:29:22.363Z,17.95
2019-03-27T10:31:50.737Z,15.50
2019-03-27T10:34:19.140Z,17.48
2019-03-27T10:36:47.468Z,17.32
2019-03-27T10:39:15.780Z,18.62
2019-03-27T10:41:44.063Z,15.15
2019-03-27T10:44:12.622Z,18.15
2019-03-27T10:46:40.985Z,14.58
2019-03-27T10:49:09.293Z,14.98
2019-03-27T10:51:37.581Z,15.90
2019-03-27T10:54:05.893Z,17.23
2019-03-27T10:56:34.177Z,12.75
2019-03-27T10:59:02.493Z,13.32
2019-03-27T11:01:30.861Z,14.53
2019-03-27T11:03:59.248Z,14.95
2019-03-27T11:06:27.609Z,16.85
2019-03-27T11:08:55.912Z,15.10
2019-03-27T11:11:24.290Z,13.93
2019-03-27T11:13:52.608Z,14.33
2019-03-27T11:16:20.976Z,18.77
2019-03-27T11:18:49.366Z,13.75
2019-03-27T11:21:17.725Z,13.32
2019-03-27T11:23:46.099Z,9.33
2019-03-27T11:26:15.377Z,10.93
2019-03-27T11:28:43.705Z,12.55
2019-03-27T11:31:12.074Z,13.13
2019-03-27T11:33:40.465Z,11.90
2019-03-27T11:36:08.820Z,15.35
2019-03-27T11:38:37.645Z,12.73
2019-03-27T11:41:06.197Z,11.60
2019-03-27T11:43:34.505Z,10.55
2019-03-27T11:46:02.877Z,10.68
2019-03-27T11:48:31.269Z,12.20
2019-03-27T11:50:59.628Z,8.83
2019-03-27T11:53:28.024Z,8.08
2019-03-27T11:55:56.316Z,9.03
2019-03-27T11:58:24.606Z,9.63
2019-03-27T12:00:54.828Z,10.18
2019-03-27T12:03:22.932Z,7.75
2019-03-27T12:05:51.313Z,7.28
2019-03-27T12:08:19.603Z,8.63
2019-03-27T12:10:47.990Z,8.63
2019-03-27T12:13:16.359Z,7.17
2019-03-27T12:15:44.744Z,8.55
2019-03-27T12:18:13.093Z,7.58
2019-03-27T12:20:41.401Z,7.62
2019-03-27T12:23:09.769Z,7.62
2019-03-27T12:25:38.157Z,7.80
2019-03-27T12:28:06.526Z,10.80
2019-03-27T12:30:34.904Z,8.55
2019-03-27T12:33:03.196Z,6.35
2019-03-27T12:35:31.513Z,10.18
2019-03-27T12:38:00.194Z,10.13
2019-03-27T12:40:28.518Z,7.85
2019-03-27T12:42:56.885Z,6.95
2019-03-27T12:45:25.269Z,7.92
2019-03-27T12:47:53.624Z,8.18
2019-03-27T12:50:21.927Z,5.92
2019-03-27T12:52:50.293Z,7.35
2019-03-27T12:55:18.679Z,8.30
2019-03-27T12:57:47.040Z,7.87
2019-03-27T13:00:15.430Z,10.45
2019-03-27T13:02:43.791Z,8.05
2019-03-27T13:05:12.109Z,7.70
2019-03-27T13:07:49.768Z,8.93
2019-03-27T13:10:10.497Z,7.17
2019-03-27T13:12:38.793Z,10.18
2019-03-27T13:15:07.100Z,9.20
2019-03-27T13:17:35.470Z,7.15
2019-03-27T13:20:06.094Z,10.32
2019-03-27T13:22:34.447Z,8.25
2019-03-27T13:25:02.768Z,11.05
2019-03-27T13:27:31.132Z,6.37
2019-03-27T13:29:59.462Z,8.00
2019-03-27T13:32:27.815Z,7.00
2019-03-27T13:34:56.111Z,5.78
2019-03-27T13:37:24.483Z,7.55
2019-03-27T13:39:52.767Z,9.85
2019-03-27T13:42:21.074Z,7.45
2019-03-27T13:44:49.378Z,9.33
2019-03-27T13:47:17.696Z,11.18
2019-03-27T13:49:46.060Z,8.93
2019-03-27T13:52:14.367Z,8.28
2019-03-27T13:54:42.661Z,8.65
2019-03-27T13:57:11.045Z,29.30
2019-03-27T13:59:39.405Z,7.25
2019-03-27T14:02:07.797Z,9.25
2019-03-27T14:04:36.164Z,8.03
2019-03-27T14:07:04.468Z,7.62
2019-03-27T14:09:32.834Z,6.28
2019-03-27T14:12:01.217Z,7.83
2019-03-27T14:14:29.573Z,12.20
2019-03-27T14:16:57.953Z,6.33
2019-03-27T14:19:26.240Z,9.45
2019-03-27T14:21:55.326Z,5.72
2019-03-27T14:24:23.704Z,4.72
2019-03-27T14:26:52.018Z,8.68
2019-03-27T14:29:20.377Z,9.50
2019-03-27T14:31:48.693Z,8.68
2019-03-27T14:34:17.058Z,5.87
2019-03-27T14:36:45.433Z,7.65
2019-03-27T14:39:13.728Z,7.33
2019-03-27T14:41:42.047Z,7.53
2019-03-27T14:44:10.408Z,7.83
2019-03-27T14:46:38.805Z,8.15
2019-03-27T14:49:07.164Z,6.17
2019-03-27T14:51:35.490Z,7.45
2019-03-27T14:54:03.855Z,5.10
2019-03-27T14:56:32.241Z,6.72
2019-03-27T14:59:00.600Z,7.50
2019-03-27T15:01:28.903Z,8.68
2019-03-27T15:03:57.192Z,8.50
2019-03-27T15:06:25.494Z,7.08
2019-03-27T15:08:53.873Z,7.17
2019-03-27T15:11:22.191Z,5.67
2019-03-27T15:13:50.560Z,6.90
2019-03-27T15:16:19.193Z,5.83
2019-03-27T15:18:47.483Z,5.15
2019-03-27T15:21:15.770Z,7.70
2019-03-27T15:23:44.169Z,5.58
2019-03-27T15:26:12.528Z,5.12
2019-03-27T15:28:40.855Z,5.10
2019-03-27T15:31:19.881Z,8.65
2019-03-27T15:33:39.185Z,6.05
2019-03-27T15:36:07.539Z,4.58
2019-03-27T15:38:35.920Z,5.78
2019-03-27T15:41:04.216Z,7.97
2019-03-27T15:43:32.613Z,9.20
2019-03-27T15:46:00.972Z,7.45
2019-03-27T15:48:29.285Z,6.70
2019-03-27T15:50:59.026Z,6.15
2019-03-27T15:53:27.476Z,7.03
2019-03-27T15:55:55.772Z,5.92
2019-03-27T15:58:24.183Z,5.25
2019-03-27T16:00:52.548Z,5.47
2019-03-27T16:03:20.932Z,8.68
2019-03-27T16:05:49.216Z,7.80
2019-03-27T16:08:17.521Z,6.15
2019-03-27T16:10:45.876Z,7.83
2019-03-27T16:13:14.270Z,6.83
2019-03-27T16:15:42.629Z,8.30
2019-03-27T16:18:11.068Z,4.87
2019-03-27T16:20:39.379Z,7.55
2019-03-27T16:23:07.764Z,6.45
2019-03-27T16:25:36.310Z,6.00
2019-03-27T16:28:04.684Z,6.40
2019-03-27T16:30:32.973Z,5.47
2019-03-27T16:33:01.353Z,6.75
2019-03-27T16:35:29.645Z,8.65
2019-03-27T16:37:57.952Z,4.75
2019-03-27T16:40:46.261Z,6.22
2019-03-27T16:43:14.565Z,7.80
2019-03-27T16:45:42.923Z,6.87
2019-03-27T16:48:11.314Z,5.15
2019-03-27T16:50:39.664Z,9.15
2019-03-27T16:53:08.038Z,5.72
2019-03-27T16:55:36.321Z,6.08
2019-03-27T16:58:04.693Z,7.90
2019-03-27T17:00:32.972Z,8.63
2019-03-27T17:03:01.276Z,6.83
2019-03-27T17:05:29.561Z,9.08
2019-03-27T17:07:57.878Z,38.80
2019-03-27T17:10:26.237Z,9.75
2019-03-27T17:12:54.616Z,6.22
2019-03-27T17:15:22.976Z,8.95
2019-03-27T17:17:51.356Z,7.20
2019-03-27T17:20:19.642Z,8.53
2019-03-27T17:22:47.944Z,9.53
2019-03-27T17:25:16.225Z,8.75
2019-03-27T17:27:44.524Z,9.78
2019-03-27T17:30:13.678Z,9.83
2019-03-27T17:32:42.057Z,9.45
2019-03-27T17:35:10.412Z,5.72
2019-03-27T17:37:38.716Z,11.70
2019-03-27T17:40:07.498Z,7.90
2019-03-27T17:42:35.869Z,6.40
2019-03-27T17:45:06.164Z,10.30
2019-03-27T17:47:34.529Z,10.28
2019-03-27T17:50:02.837Z,9.68
2019-03-27T17:52:31.221Z,10.40
2019-03-27T17:54:59.523Z,9.75
2019-03-27T17:57:27.812Z,11.05
2019-03-27T17:59:56.121Z,11.88
2019-03-27T18:02:24.489Z,11.28
2019-03-27T18:04:52.805Z,14.53
2019-03-27T18:07:21.160Z,16.15
2019-03-27T18:09:49.489Z,30.48
2019-03-27T18:12:17.844Z,19.48
2019-03-27T18:14:46.179Z,10.63
2019-03-27T18:17:14.541Z,11.40
2019-03-27T18:19:42.843Z,10.35
2019-03-27T18:22:11.133Z,8.35
2019-03-27T18:24:39.447Z,9.70
2019-03-27T18:27:07.808Z,7.42
2019-03-27T18:29:36.191Z,10.03
2019-03-27T18:32:04.545Z,9.30
2019-03-27T18:34:32.848Z,10.45
2019-03-27T18:37:01.134Z,11.30
2019-03-27T18:39:29.511Z,10.95
2019-03-27T18:41:57.969Z,13.13
2019-03-27T18:44:26.274Z,9.40
2019-03-27T18:46:54.560Z,9.25
2019-03-27T18:49:22.872Z,13.18
2019-03-27T18:51:51.237Z,10.43
2019-03-27T18:54:19.637Z,10.58
2019-03-27T18:56:48.021Z,9.70
2019-03-27T18:59:16.333Z,14.60
2019-03-27T19:01:44.620Z,17.23
2019-03-27T19:04:13.001Z,14.40
2019-03-27T19:06:41.315Z,14.13
2019-03-27T19:09:09.628Z,12.93
2019-03-27T19:11:37.992Z,10.95
2019-03-27T19:14:06.402Z,10.58
2019-03-27T19:16:34.664Z,15.83
2019-03-27T19:19:03.050Z,13.80
2019-03-27T19:21:31.349Z,13.45
2019-03-27T19:24:12.453Z,11.97
2019-03-27T19:26:29.670Z,12.37
2019-03-27T19:28:58.057Z,12.75
2019-03-27T19:31:26.431Z,10.50
2019-03-27T19:33:54.793Z,12.55
2019-03-27T19:36:23.084Z,12.30
2019-03-27T19:38:51.398Z,15.58
2019-03-27T19:41:19.752Z,12.15
2019-03-27T19:43:48.064Z,13.98
2019-03-27T19:46:16.429Z,11.60
2019-03-27T19:48:44.813Z,13.22
2019-03-27T19:51:13.177Z,21.15
2019-03-27T19:53:41.491Z,20.88
2019-03-27T19:56:09.780Z,17.65
2019-03-27T19:58:38.209Z,12.43
2019-03-27T20:01:06.547Z,16.75
2019-03-27T20:03:34.949Z,17.25
2019-03-27T20:06:03.296Z,18.67
2019-03-27T20:08:31.577Z,16.55
2019-03-27T20:10:59.888Z,18.02
2019-03-27T20:13:28.251Z,14.33
2019-03-27T20:15:56.561Z,16.37
2019-03-27T20:18:24.846Z,12.82
2019-03-27T20:20:53.229Z,18.10
2019-03-27T20:23:21.588Z,15.18
2019-03-27T20:25:49.897Z,13.10
2019-03-27T20:28:18.255Z,15.35
2019-03-27T20:30:46.637Z,12.75
2019-03-27T20:33:15.005Z,13.65
2019-03-27T20:35:43.388Z,14.20
2019-03-27T20:38:11.672Z,12.78
2019-03-27T20:40:39.989Z,18.73
2019-03-27T20:43:08.347Z,24.57
2019-03-27T20:45:36.666Z,37.75
2019-03-27T20:48:05.038Z,43.50
2019-03-27T20:50:33.418Z,39.23
2019-03-27T20:53:01.778Z,37.50
2019-03-27T20:55:31.081Z,37.00
2019-03-27T20:57:59.532Z,43.73
2019-03-27T21:00:27.838Z,49.48
2019-03-27T21:02:56.129Z,46.70
2019-03-27T21:05:24.521Z,53.28
2019-03-27T21:07:52.883Z,38.58
2019-03-27T21:10:21.324Z,29.52
2019-03-27T21:12:49.688Z,21.45
2019-03-27T21:15:18.060Z,16.05
2019-03-27T21:17:46.348Z,13.22
2019-03-27T21:20:14.657Z,13.32
2019-03-27T21:22:42.956Z,11.55
2019-03-27T21:25:11.339Z,14.28
2019-03-27T21:27:39.625Z,14.98
2019-03-27T21:30:10.126Z,11.97
2019-03-27T21:32:38.485Z,16.17
2019-03-27T21:35:06.932Z,14.35
2019-03-27T21:37:35.220Z,11.43
2019-03-27T21:40:07.113Z,14.95
2019-03-27T21:42:35.476Z,17.67
2019-03-27T21:45:08.110Z,15.63
2019-03-27T21:47:36.391Z,29.02
2019-03-27T21:50:06.480Z,41.28
2019-03-27T21:52:34.849Z,23.92
2019-03-27T21:55:03.204Z,23.60
2019-03-27T21:57:31.516Z,22.35
2019-03-27T21:59:59.985Z,20.82
2019-03-27T22:02:28.480Z,33.10
2019-03-27T22:04:56.764Z,42.73
2019-03-27T22:07:25.068Z,75.45
2019-03-27T22:09:53.356Z,67.12
2019-03-27T22:12:21.669Z,72.20
2019-03-27T22:14:50.032Z,65.78
2019-03-27T22:17:18.421Z,62.08
2019-03-27T22:19:46.788Z,56.80
2019-03-27T22:22:15.176Z,50.92
2019-03-27T22:24:43.549Z,44.27
2019-03-27T22:27:11.921Z,33.48
2019-03-27T22:29:40.213Z,34.27
2019-03-27T22:32:08.601Z,24.63
2019-03-27T22:34:36.970Z,23.00
2019-03-27T22:37:05.358Z,19.12
2019-03-27T22:39:33.719Z,17.30
2019-03-27T22:42:02.103Z,16.02
2019-03-27T22:44:30.456Z,10.43
2019-03-27T22:46:58.768Z,13.40
2019-03-27T22:49:27.075Z,12.78
2019-03-27T22:51:55.457Z,14.53
2019-03-27T22:54:23.745Z,16.23
2019-03-27T22:56:52.052Z,13.40
2019-03-27T22:59:20.342Z,12.60
2019-03-27T23:01:48.649Z,11.53
2019-03-27T23:04:17.280Z,10.90
2019-03-27T23:06:45.584Z,11.65
2019-03-27T23:09:13.868Z,15.18
2019-03-27T23:11:42.156Z,14.60
2019-03-27T23:14:10.539Z,12.93
2019-03-27T23:16:38.828Z,15.85
2019-03-27T23:19:07.141Z,12.03
2019-03-27T23:21:35.503Z,15.03
2019-03-27T23:24:03.883Z,17.00
2019-03-27T23:26:32.494Z,13.45
2019-03-27T23:29:00.871Z,14.90
2019-03-27T23:31:29.225Z,15.20
2019-03-27T23:33:59.392Z,13.40
2019-03-27T23:36:27.540Z,11.28
2019-03-27T23:38:55.853Z,12.03
2019-03-27T23:41:24.216Z,12.20
2019-03-27T23:43:52.528Z,10.18
2019-03-27T23:46:20.888Z,11.10
2019-03-27T23:48:49.264Z,13.32
2019-03-27T23:51:17.544Z,14.33
2019-03-27T23:53:45.848Z,12.43
2019-03-27T23:56:16.821Z,10.58
2019-03-27T23:58:44.153Z,8.98
